createdAt,value
2023-05-04T00:01:34.410Z,55.48
2023-05-04T00:04:38.702Z,55.62
2023-05-04T00:07:45.815Z,55.53
2023-05-04T00:10:33.507Z,55.61
2023-05-04T00:13:10.669Z,55.56
2023-05-04T00:15:52.557Z,55.69
2023-05-04T00:19:23.134Z,55.84
2023-05-04T00:22:23.411Z,55.88
2023-05-04T00:25:01.962Z,55.84
2023-05-04T00:27:41.244Z,55.88
2023-05-04T00:30:16.797Z,56.10
2023-05-04T00:32:51.383Z,56.26
2023-05-04T00:35:39.487Z,56.40
2023-05-04T00:38:22.389Z,56.45
2023-05-04T00:41:17.486Z,56.48
2023-05-04T00:44:14.221Z,56.70
2023-05-04T00:47:07.435Z,56.73
2023-05-04T00:56:04.671Z,57.22
2023-05-04T00:58:46.359Z,57.37
2023-05-04T01:01:27.084Z,57.54
2023-05-04T01:04:31.838Z,57.58
2023-05-04T01:07:57.390Z,57.59
2023-05-04T01:10:41.183Z,57.65
2023-05-04T01:13:29.516Z,57.84
2023-05-04T01:16:19.870Z,57.73
2023-05-04T01:19:12.658Z,57.97
2023-05-04T01:21:57.489Z,57.87
2023-05-04T01:24:35.977Z,58.00
2023-05-04T01:27:19.883Z,57.97
2023-05-04T01:30:20.714Z,58.04
2023-05-04T01:33:14.045Z,58.01
2023-05-04T01:36:10.596Z,58.08
2023-05-04T01:38:56.014Z,58.00
2023-05-04T01:42:05.068Z,57.98
2023-05-04T01:44:44.074Z,58.02
2023-05-04T01:47:19.995Z,58.30
2023-05-04T01:49:54.018Z,58.29
2023-05-04T01:52:26.159Z,58.39
2023-05-04T01:55:05.598Z,58.27
2023-05-04T01:57:35.555Z,58.50
2023-05-04T02:00:13.711Z,58.46
2023-05-04T02:02:54.885Z,58.52
2023-05-04T02:05:47.363Z,58.79
2023-05-04T02:08:29.769Z,58.95
2023-05-04T02:11:56.861Z,58.89
2023-05-04T02:14:52.033Z,59.06
2023-05-04T02:17:52.319Z,59.18
2023-05-04T02:20:51.904Z,59.08
2023-05-04T02:23:42.856Z,58.97
2023-05-04T02:26:14.937Z,58.94
2023-05-04T02:28:53.150Z,58.74
2023-05-04T02:31:27.225Z,58.96
2023-05-04T02:34:22.040Z,58.98
2023-05-04T02:36:59.547Z,58.87
2023-05-04T02:39:36.119Z,59.07
2023-05-04T02:42:37.072Z,59.02
2023-05-04T02:45:14.823Z,58.89
2023-05-04T02:48:11.661Z,59.06
2023-05-04T02:50:51.193Z,58.74
2023-05-04T02:54:02.286Z,58.79
2023-05-04T02:56:40.965Z,58.90
2023-05-04T02:59:58.541Z,58.83
2023-05-04T03:02:33.380Z,58.94
2023-05-04T03:05:35.223Z,59.14
2023-05-04T03:08:08.318Z,59.06
2023-05-04T03:10:52.815Z,59.22
2023-05-04T03:13:29.028Z,59.03
2023-05-04T03:17:45.658Z,59.17
2023-05-04T03:20:25.967Z,58.76
2023-05-04T03:23:40.605Z,58.56
2023-05-04T03:26:28.557Z,58.50
2023-05-04T03:29:07.471Z,58.61
2023-05-04T03:31:40.420Z,58.63
2023-05-04T03:34:33.214Z,58.32
2023-05-04T03:37:20.628Z,58.47
2023-05-04T03:40:00.470Z,58.21
2023-05-04T03:43:16.230Z,58.00
2023-05-04T03:46:24.540Z,57.59
2023-05-04T03:49:01.241Z,57.50
2023-05-04T03:51:59.589Z,57.34
2023-05-04T03:54:33.394Z,57.24
2023-05-04T03:57:37.031Z,57.05
2023-05-04T04:04:00.792Z,56.31
2023-05-04T04:11:01.179Z,55.97
2023-05-04T04:13:58.990Z,55.62
2023-05-04T04:17:33.448Z,55.73
2023-05-04T04:20:26.569Z,55.56
2023-05-04T04:23:09.742Z,55.35
2023-05-04T04:26:01.378Z,55.33
2023-05-04T04:28:32.247Z,55.52
2023-05-04T04:34:47.356Z,55.59
2023-05-04T04:48:37.561Z,55.24
2023-05-04T04:56:51.588Z,54.84
2023-05-04T04:59:58.403Z,54.64
2023-05-04T05:03:29.733Z,54.61
2023-05-04T05:06:19.564Z,54.50
2023-05-04T05:12:38.305Z,53.78
2023-05-04T05:19:22.209Z,53.79
2023-05-04T05:22:53.973Z,54.06
2023-05-04T05:35:46.699Z,54.22
2023-05-04T05:36:44.689Z,53.77
2023-05-04T05:50:42.552Z,51.72
2023-05-04T06:02:48.765Z,51.18
2023-05-04T06:06:46.227Z,50.97
2023-05-04T06:09:49.845Z,50.57
2023-05-04T06:22:25.780Z,49.89
2023-05-04T06:25:50.833Z,49.71
2023-05-04T06:37:43.630Z,48.93
2023-05-04T06:41:17.614Z,49.12
2023-05-04T06:44:18.131Z,49.04
2023-05-04T06:47:11.983Z,49.16
2023-05-04T06:49:48.581Z,49.02
2023-05-04T06:52:57.449Z,48.89
2023-05-04T06:55:55.430Z,48.25
2023-05-04T07:02:47.070Z,48.18
2023-05-04T07:05:37.794Z,47.55
2023-05-04T07:13:46.104Z,46.92
2023-05-04T07:22:27.546Z,46.23
2023-05-04T07:30:13.830Z,45.38
2023-05-04T07:33:31.721Z,44.82
2023-05-04T07:36:49.416Z,42.79
2023-05-04T07:39:31.146Z,42.76
2023-05-04T07:46:26.045Z,41.68
2023-05-04T07:49:43.715Z,40.50
2023-05-04T07:52:40.995Z,38.98
2023-05-04T07:56:02.360Z,38.86
2023-05-04T07:58:51.779Z,35.54
2023-05-04T08:01:48.063Z,35.06
2023-05-04T08:04:45.928Z,36.42
2023-05-04T08:07:17.949Z,38.33
2023-05-04T08:10:01.126Z,39.92
2023-05-04T08:13:30.576Z,40.26
2023-05-04T08:17:18.805Z,38.84
2023-05-04T08:20:14.297Z,38.03
2023-05-04T08:24:04.133Z,37.39
2023-05-04T08:28:04.817Z,35.71
2023-05-04T08:30:58.328Z,33.72
2023-05-04T08:34:47.326Z,32.87
2023-05-04T08:46:10.561Z,31.88
2023-05-04T09:16:20.913Z,31.48
2023-05-04T09:19:08.830Z,31.09
2023-05-04T09:22:53.133Z,31.08
2023-05-04T09:25:50.031Z,31.77
2023-05-04T09:40:04.948Z,30.43
2023-05-04T09:43:25.658Z,30.58
2023-05-04T09:56:08.528Z,30.62
2023-05-04T09:59:16.377Z,31.19
2023-05-04T10:02:38.336Z,30.96
2023-05-04T10:05:22.838Z,31.05
2023-05-04T10:08:58.778Z,31.21
2023-05-04T10:16:23.804Z,28.04
2023-05-04T10:19:32.560Z,27.06
2023-05-04T10:23:14.106Z,27.60
2023-05-04T10:27:24.130Z,28.04
2023-05-04T10:52:28.548Z,28.10
2023-05-04T10:55:45.329Z,27.68
2023-05-04T11:07:59.390Z,27.66
2023-05-04T11:11:23.521Z,27.21
2023-05-04T11:14:14.437Z,27.61
2023-05-04T11:18:09.232Z,27.84
2023-05-04T11:25:37.193Z,28.63
2023-05-04T11:33:46.195Z,28.33
2023-05-04T11:36:50.035Z,27.38
2023-05-04T11:43:45.317Z,26.87
2023-05-04T11:51:51.308Z,26.24
2023-05-04T12:02:16.376Z,25.75
2023-05-04T12:05:25.386Z,25.76
2023-05-04T12:08:49.910Z,26.22
2023-05-04T12:11:43.212Z,25.82
2023-05-04T12:14:35.081Z,25.14
2023-05-04T12:18:40.429Z,25.59
2023-05-04T12:22:35.129Z,25.90
2023-05-04T12:26:05.974Z,26.20
2023-05-04T12:29:10.593Z,26.73
2023-05-04T12:32:46.657Z,26.77
2023-05-04T12:36:40.464Z,26.53
2023-05-04T12:45:27.520Z,25.32
2023-05-04T12:48:29.163Z,25.80
2023-05-04T12:51:28.044Z,26.01
2023-05-04T12:55:24.693Z,25.90
2023-05-04T12:59:16.909Z,25.95
2023-05-04T13:02:19.803Z,26.90
2023-05-04T13:14:42.949Z,25.91
2023-05-04T13:17:58.178Z,25.40
2023-05-04T13:20:56.109Z,25.61
2023-05-04T13:23:39.508Z,25.69
2023-05-04T13:26:36.990Z,25.80
2023-05-04T13:46:39.751Z,26.31
2023-05-04T13:49:34.090Z,26.25
2023-05-04T13:52:47.307Z,24.88
2023-05-04T13:56:14.554Z,24.98
2023-05-04T13:59:58.386Z,25.33
2023-05-04T14:04:09.038Z,25.65
2023-05-04T14:07:29.467Z,25.60
2023-05-04T14:11:37.621Z,24.79
2023-05-04T14:14:41.136Z,25.00
2023-05-04T14:17:21.924Z,24.74
2023-05-04T14:21:07.959Z,24.88
2023-05-04T14:24:22.641Z,24.46
2023-05-04T14:27:36.595Z,24.45
2023-05-04T14:35:10.932Z,24.22
2023-05-04T14:38:05.860Z,24.19
2023-05-04T14:40:45.479Z,24.59
2023-05-04T14:48:03.490Z,24.26
2023-05-04T14:51:07.652Z,24.40
2023-05-04T14:54:22.122Z,24.48
2023-05-04T15:07:14.752Z,24.89
2023-05-04T15:10:15.707Z,25.12
2023-05-04T15:13:45.009Z,25.12
2023-05-04T15:16:48.366Z,24.90
2023-05-04T15:19:59.413Z,25.22
2023-05-04T15:24:04.906Z,24.41
2023-05-04T15:27:06.492Z,24.53
2023-05-04T15:30:02.790Z,25.06
2023-05-04T15:45:12.096Z,25.05
2023-05-04T16:13:07.636Z,27.38
2023-05-04T16:16:17.067Z,27.23
2023-05-04T16:24:29.735Z,27.74
2023-05-04T16:27:29.740Z,28.19
2023-05-04T16:31:00.426Z,28.48
2023-05-04T16:34:37.036Z,28.58
2023-05-04T16:42:05.194Z,29.00
2023-05-04T16:44:54.473Z,29.10
2023-05-04T16:47:53.783Z,29.26
2023-05-04T16:59:25.291Z,29.55
2023-05-04T17:02:26.213Z,29.79
2023-05-04T17:10:46.260Z,30.04
2023-05-04T17:39:33.203Z,31.85
2023-05-04T17:57:59.359Z,32.53
2023-05-04T18:01:39.705Z,32.62
2023-05-04T18:05:26.690Z,32.61
2023-05-04T18:12:24.161Z,32.92
2023-05-04T18:15:48.948Z,32.88
2023-05-04T18:19:55.757Z,32.82
2023-05-04T18:28:25.677Z,33.02
2023-05-04T18:50:28.492Z,33.85
2023-05-04T18:54:26.374Z,33.92
2023-05-04T18:57:57.140Z,33.65
2023-05-04T19:00:56.240Z,33.64
2023-05-04T19:08:18.708Z,33.87
2023-05-04T19:11:19.762Z,33.94
2023-05-04T19:14:15.880Z,33.91
2023-05-04T19:26:25.589Z,34.16
2023-05-04T19:30:24.581Z,34.19
2023-05-04T19:33:45.022Z,34.43
2023-05-04T19:44:22.533Z,34.98
2023-05-04T19:50:47.338Z,35.17
2023-05-04T19:54:33.846Z,35.29
2023-05-04T19:57:30.896Z,35.34
2023-05-04T20:00:26.068Z,35.53
2023-05-04T20:07:50.731Z,35.73
2023-05-04T20:15:54.976Z,36.36
2023-05-04T20:19:25.641Z,36.80
2023-05-04T20:22:25.630Z,37.08
2023-05-04T20:25:23.819Z,37.36
2023-05-04T20:28:09.370Z,37.64
2023-05-04T20:31:12.083Z,37.95
2023-05-04T20:39:21.184Z,38.36
2023-05-04T20:42:46.253Z,38.42
2023-05-04T20:45:56.869Z,38.60
2023-05-04T20:49:57.504Z,38.71
2023-05-04T20:53:08.050Z,38.96
2023-05-04T20:56:10.678Z,39.01
2023-05-04T20:59:59.168Z,39.22
2023-05-04T21:04:00.188Z,39.37
2023-05-04T21:06:48.351Z,39.58
2023-05-04T21:09:51.671Z,39.64
2023-05-04T21:12:29.141Z,39.83
2023-05-04T21:20:04.544Z,39.96
2023-05-04T21:22:38.381Z,40.15
2023-05-04T21:25:52.083Z,40.24
2023-05-04T21:28:35.726Z,40.25
2023-05-04T21:31:26.189Z,40.43
2023-05-04T21:34:25.862Z,40.49
2023-05-04T21:36:56.918Z,40.65
2023-05-04T21:40:24.707Z,40.74
2023-05-04T21:42:57.630Z,40.82
2023-05-04T21:45:38.979Z,40.71
2023-05-04T21:48:16.610Z,40.87
2023-05-04T21:51:20.504Z,41.34
2023-05-04T21:54:47.803Z,41.80
2023-05-04T21:57:19.577Z,41.89
2023-05-04T22:00:50.469Z,41.97
2023-05-04T22:03:23.569Z,41.98
2023-05-04T22:07:11.501Z,42.03
2023-05-04T22:09:46.551Z,42.13
2023-05-04T22:13:02.522Z,42.17
2023-05-04T22:16:03.440Z,42.47
2023-05-04T22:19:06.548Z,43.45
2023-05-04T22:21:47.609Z,44.31
2023-05-04T22:24:39.214Z,45.11
2023-05-04T22:27:20.037Z,45.86
2023-05-04T22:29:59.062Z,46.22
2023-05-04T22:32:35.623Z,46.37
2023-05-04T22:35:33.432Z,47.25
2023-05-04T22:38:14.856Z,48.83
2023-05-04T22:41:42.527Z,49.60
2023-05-04T22:44:33.988Z,50.16
2023-05-04T22:47:18.714Z,50.99
2023-05-04T22:50:16.897Z,52.74
2023-05-04T22:53:05.561Z,54.05
2023-05-04T22:55:50.358Z,55.04
2023-05-04T22:59:21.053Z,56.50
2023-05-04T23:02:02.694Z,57.75
2023-05-04T23:04:47.049Z,58.63
2023-05-04T23:07:32.284Z,60.09
2023-05-04T23:10:13.819Z,60.75
2023-05-04T23:12:50.080Z,61.74
2023-05-04T23:15:46.080Z,62.27
2023-05-04T23:18:20.932Z,63.12
2023-05-04T23:21:13.500Z,63.13
2023-05-04T23:24:00.226Z,63.24
2023-05-04T23:26:39.151Z,63.54
2023-05-04T23:29:20.164Z,63.78
2023-05-04T23:31:57.871Z,64.38
2023-05-04T23:34:30.701Z,64.71
2023-05-04T23:37:09.526Z,64.77
2023-05-04T23:39:42.822Z,64.84
2023-05-04T23:42:18.929Z,64.89
2023-05-04T23:44:54.678Z,64.95
2023-05-04T23:48:12.630Z,65.12
2023-05-04T23:51:14.274Z,65.21
2023-05-04T23:54:09.635Z,65.35
2023-05-04T23:56:43.199Z,65.57
2023-05-04T23:59:32.402Z,65.60
